Time;durP1;ratioP1;P1;durP2;ratioP2;P2;SDS_P1;SDS_P2;PMS_P1;PMS_P2;Temp;Humidity;BMP_temperature;BMP_pressure;BME280_temperature;BME280_humidity;BME280_pressure;Samples;Min_cycle;Max_cycle;Signal;HPM_P1;HPM_P2
2021/12/13 00:01:56;;;;;;;7.68;4.20;;;;;;;;;;5050630;28;20060;-64
2021/12/13 00:04:26;;;;;;;10.60;4.13;;;;;;;;;;5046950;28;20043;-63
2021/12/13 00:06:54;;;;;;;10.48;4.32;;;;;;;;;;5079924;28;20059;-63
2021/12/13 00:09:21;;;;;;;8.82;4.20;;;;;;;;;;5060968;28;20089;-64
2021/12/13 00:11:48;;;;;;;8.32;4.03;;;;;;;;;;5078048;28;20054;-65
2021/12/13 00:14:14;;;;;;;11.63;4.80;;;;;;;;;;5095646;28;20080;-64
2021/12/13 00:16:42;;;;;;;12.38;4.85;;;;;;;;;;5095371;28;20114;-64
2021/12/13 00:19:10;;;;;;;7.50;3.90;;;;;;;;;;5095604;28;20039;-64
2021/12/13 00:21:38;;;;;;;9.98;4.03;;;;;;;;;;5060814;28;20082;-63
2021/12/13 00:24:19;;;;;;;8.88;4.20;;;;;;;;;;5077351;28;20062;-63
2021/12/13 00:26:49;;;;;;;8.23;4.15;;;;;;;;;;5060641;28;20059;-65
2021/12/13 00:29:20;;;;;;;7.72;3.75;;;;;;;;;;5060425;28;20036;-66
2021/12/13 00:31:45;;;;;;;9.82;4.30;;;;;;;;;;5095420;28;20434;-64
2021/12/13 00:34:18;;;;;;;8.02;4.00;;;;;;;;;;5095408;28;20036;-64
2021/12/13 00:36:49;;;;;;;6.80;3.75;;;;;;;;;;5095385;28;20032;-64
2021/12/13 00:39:20;;;;;;;8.57;4.03;;;;;;;;;;5060502;28;20040;-64
2021/12/13 00:41:47;;;;;;;7.55;3.90;;;;;;;;;;5076822;28;20112;-64
2021/12/13 00:44:22;;;;;;;7.05;4.05;;;;;;;;;;5060465;28;20047;-64
2021/12/13 00:46:53;;;;;;;6.28;3.88;;;;;;;;;;5077145;28;20039;-64
2021/12/13 00:49:20;;;;;;;9.73;4.53;;;;;;;;;;5077052;28;20028;-64
2021/12/13 00:51:47;;;;;;;12.07;5.78;;;;;;;;;;5060250;28;20032;-62
2021/12/13 00:54:19;;;;;;;13.35;4.78;;;;;;;;;;5095097;28;20040;-67
2021/12/13 00:56:44;;;;;;;12.90;4.97;;;;;;;;;;5077026;28;20161;-64
2021/12/13 00:59:11;;;;;;;13.05;4.90;;;;;;;;;;5095233;28;20454;-65
2021/12/13 01:01:40;;;;;;;11.10;4.97;;;;;;;;;;5076733;28;20028;-64
2021/12/13 01:04:10;;;;;;;10.55;5.18;;;;;;;;;;5095126;28;20024;-64
2021/12/13 01:06:37;;;;;;;12.15;4.82;;;;;;;;;;5060046;28;20479;-62
2021/12/13 01:09:22;;;;;;;9.52;4.43;;;;;;;;;;5076618;28;20075;-63
2021/12/13 01:11:50;;;;;;;12.52;5.30;;;;;;;;;;5094635;28;20505;-63
2021/12/13 01:14:27;;;;;;;9.75;4.75;;;;;;;;;;5094834;28;20032;-64
2021/12/13 01:17:03;;;;;;;7.43;3.67;;;;;;;;;;5094587;28;20036;-64
2021/12/13 01:19:32;;;;;;;7.35;3.70;;;;;;;;;;5059673;28;20032;-63
2021/12/13 01:22:24;;;;;;;6.90;3.17;;;;;;;;;;5093606;28;20048;-64
2021/12/13 01:27:26;;;;;;;7.80;3.50;;;;;;;;;;5076368;28;20506;-63
2021/12/13 01:29:52;;;;;;;8.15;3.20;;;;;;;;;;5059961;28;20045;-64
2021/12/13 01:32:18;;;;;;;9.27;3.35;;;;;;;;;;5059856;28;20020;-63
2021/12/13 01:34:45;;;;;;;6.78;3.25;;;;;;;;;;5076677;28;20032;-63
2021/12/13 01:37:15;;;;;;;5.72;3.60;;;;;;;;;;5094400;28;20457;-64
2021/12/13 01:39:44;;;;;;;5.80;3.33;;;;;;;;;;5076407;28;20074;-63
2021/12/13 01:42:12;;;;;;;7.10;3.40;;;;;;;;;;5076355;28;20067;-65
2021/12/13 01:44:41;;;;;;;7.40;3.90;;;;;;;;;;5094314;28;20040;-64
2021/12/13 01:47:08;;;;;;;7.17;3.60;;;;;;;;;;5094204;28;20115;-64
2021/12/13 01:49:41;;;;;;;8.85;3.53;;;;;;;;;;5094223;28;20071;-64
2021/12/13 01:52:18;;;;;;;7.03;3.60;;;;;;;;;;5059364;28;20123;-64
2021/12/13 01:54:44;;;;;;;7.78;3.40;;;;;;;;;;5059290;28;20123;-63
2021/12/13 01:59:50;;;;;;;6.80;3.25;;;;;;;;;;5076104;28;20127;-63
2021/12/13 02:02:16;;;;;;;6.40;3.20;;;;;;;;;;5059293;28;20028;-62
2021/12/13 02:04:43;;;;;;;6.25;3.05;;;;;;;;;;5093874;28;20436;-62
2021/12/13 02:07:09;;;;;;;5.88;2.90;;;;;;;;;;5075816;28;20028;-61
2021/12/13 02:09:37;;;;;;;6.15;3.42;;;;;;;;;;5075457;28;20043;-64
2021/12/13 02:12:05;;;;;;;7.10;2.95;;;;;;;;;;5059207;28;20044;-63
2021/12/13 02:14:33;;;;;;;7.05;2.90;;;;;;;;;;5058874;28;20043;-64
2021/12/13 02:17:13;;;;;;;10.43;3.08;;;;;;;;;;5059406;28;20036;-64
2021/12/13 02:19:38;;;;;;;5.18;2.90;;;;;;;;;;5058956;28;20034;-63
2021/12/13 02:22:13;;;;;;;5.47;2.65;;;;;;;;;;5093536;28;20394;-64
2021/12/13 02:24:38;;;;;;;5.35;2.75;;;;;;;;;;5075709;28;20087;-63
2021/12/13 02:27:04;;;;;;;5.45;2.60;;;;;;;;;;5093490;28;20056;-64
2021/12/13 02:29:36;;;;;;;5.03;2.60;;;;;;;;;;5057900;28;20032;-63
2021/12/13 02:32:03;;;;;;;6.00;2.78;;;;;;;;;;5075407;28;20032;-63
2021/12/13 02:34:30;;;;;;;7.38;2.60;;;;;;;;;;5075530;28;20042;-62
2021/12/13 02:36:56;;;;;;;7.80;2.90;;;;;;;;;;5058410;28;20024;-62
2021/12/13 02:39:29;;;;;;;5.00;2.50;;;;;;;;;;5075385;28;20077;-63
2021/12/13 02:41:55;;;;;;;5.35;2.00;;;;;;;;;;5058956;28;20039;-64
2021/12/13 02:44:38;;;;;;;5.78;2.53;;;;;;;;;;5058699;28;20032;-62
2021/12/13 02:47:08;;;;;;;7.20;3.03;;;;;;;;;;5093383;28;20040;-65
2021/12/13 02:49:36;;;;;;;6.38;2.85;;;;;;;;;;5058327;28;20036;-63
2021/12/13 02:52:04;;;;;;;6.88;2.90;;;;;;;;;;5058438;28;20090;-63
2021/12/13 02:54:35;;;;;;;4.82;2.50;;;;;;;;;;5075143;28;20444;-64
2021/12/13 02:57:06;;;;;;;5.28;2.22;;;;;;;;;;5058378;28;20063;-63
2021/12/13 02:59:33;;;;;;;5.95;2.65;;;;;;;;;;5093164;28;20029;-63
2021/12/13 03:02:16;;;;;;;5.70;2.40;;;;;;;;;;5092941;28;20048;-63
2021/12/13 03:04:41;;;;;;;3.92;2.05;;;;;;;;;;5092937;28;20068;-63
2021/12/13 03:07:09;;;;;;;3.65;1.80;;;;;;;;;;5093038;28;20058;-63
2021/12/13 03:09:36;;;;;;;3.67;1.92;;;;;;;;;;5058321;28;20032;-62
2021/12/13 03:12:05;;;;;;;5.80;2.30;;;;;;;;;;5092917;28;20471;-64
2021/12/13 03:14:32;;;;;;;5.47;2.08;;;;;;;;;;5092635;28;20039;-64
2021/12/13 03:17:03;;;;;;;4.60;2.22;;;;;;;;;;5057969;28;20036;-65
2021/12/13 03:19:32;;;;;;;4.45;2.38;;;;;;;;;;5074806;28;20471;-65
2021/12/13 03:22:03;;;;;;;7.40;2.40;;;;;;;;;;5092758;28;20478;-66
2021/12/13 03:24:34;;;;;;;5.10;1.98;;;;;;;;;;5092612;28;20043;-65
2021/12/13 03:27:12;;;;;;;5.20;2.17;;;;;;;;;;5092441;28;20047;-64
2021/12/13 03:29:43;;;;;;;5.47;2.20;;;;;;;;;;5092901;28;20072;-64
2021/12/13 03:32:10;;;;;;;4.05;1.92;;;;;;;;;;5092589;28;20036;-63
2021/12/13 03:34:38;;;;;;;3.78;1.77;;;;;;;;;;5057883;28;20069;-63
2021/12/13 03:37:09;;;;;;;4.57;1.52;;;;;;;;;;5074414;28;20035;-63
2021/12/13 03:39:36;;;;;;;4.35;1.73;;;;;;;;;;5092096;28;20118;-63
2021/12/13 03:42:05;;;;;;;4.97;1.70;;;;;;;;;;5057909;28;20036;-63
2021/12/13 03:44:32;;;;;;;5.18;1.70;;;;;;;;;;5074633;28;20036;-63
2021/12/13 03:47:08;;;;;;;5.05;2.10;;;;;;;;;;5074285;28;20505;-63
2021/12/13 03:49:40;;;;;;;5.88;1.80;;;;;;;;;;5057615;28;20035;-63
2021/12/13 03:52:07;;;;;;;3.58;1.80;;;;;;;;;;5057593;28;20475;-64
2021/12/13 03:54:36;;;;;;;3.03;1.63;;;;;;;;;;5074815;28;20040;-64
2021/12/13 03:57:01;;;;;;;3.75;2.00;;;;;;;;;;5092280;28;20040;-63
2021/12/13 03:59:28;;;;;;;4.90;1.92;;;;;;;;;;5092133;28;20033;-64
2021/12/13 04:01:58;;;;;;;4.85;1.88;;;;;;;;;;5056454;28;20029;-65
2021/12/13 04:04:30;;;;;;;4.63;1.88;;;;;;;;;;5068769;28;20025;-64
2021/12/13 04:06:58;;;;;;;4.18;1.88;;;;;;;;;;5053272;28;20414;-64
2021/12/13 04:09:24;;;;;;;4.15;1.60;;;;;;;;;;5070407;28;20064;-64
2021/12/13 04:11:52;;;;;;;4.75;2.10;;;;;;;;;;5053594;28;20028;-64
2021/12/13 04:14:24;;;;;;;4.43;1.80;;;;;;;;;;5070206;28;20050;-68
2021/12/13 04:17:05;;;;;;;3.90;1.70;;;;;;;;;;5053362;28;20047;-63
2021/12/13 04:19:46;;;;;;;4.55;1.80;;;;;;;;;;5053748;28;20059;-63
2021/12/13 04:22:11;;;;;;;4.43;1.80;;;;;;;;;;5088154;28;20031;-64
2021/12/13 04:24:40;;;;;;;4.47;2.17;;;;;;;;;;5053202;28;20085;-63
2021/12/13 04:27:07;;;;;;;6.93;1.67;;;;;;;;;;5069968;28;20122;-65
2021/12/13 04:29:36;;;;;;;3.20;1.60;;;;;;;;;;5070155;28;20028;-65
2021/12/13 04:32:10;;;;;;;5.10;2.38;;;;;;;;;;5053342;28;20059;-64
2021/12/13 04:34:41;;;;;;;4.00;1.80;;;;;;;;;;5053283;28;20039;-76
2021/12/13 04:37:09;;;;;;;4.38;1.80;;;;;;;;;;5053878;28;20044;-65
2021/12/13 04:39:35;;;;;;;6.95;2.38;;;;;;;;;;5087950;28;20491;-63
2021/12/13 04:42:12;;;;;;;6.95;2.17;;;;;;;;;;5069716;28;20479;-70
2021/12/13 04:44:50;;;;;;;5.00;1.80;;;;;;;;;;5051563;28;20044;-65
2021/12/13 04:47:27;;;;;;;5.03;2.25;;;;;;;;;;5086055;28;20670;-63
2021/12/13 04:50:03;;;;;;;8.20;2.17;;;;;;;;;;5051509;28;20036;-64
2021/12/13 04:52:31;;;;;;;5.88;2.17;;;;;;;;;;5052142;28;20032;-65
2021/12/13 04:54:57;;;;;;;5.43;2.03;;;;;;;;;;5070671;28;20028;-64
2021/12/13 04:57:22;;;;;;;5.20;2.00;;;;;;;;;;5089583;28;20039;-64
2021/12/13 04:59:54;;;;;;;3.38;1.77;;;;;;;;;;5072173;28;20060;-63
2021/12/13 05:02:21;;;;;;;7.75;1.75;;;;;;;;;;5072905;28;20036;-63
2021/12/13 05:04:49;;;;;;;3.42;1.55;;;;;;;;;;5090810;28;20039;-65
2021/12/13 05:07:17;;;;;;;6.07;2.00;;;;;;;;;;5090762;28;20043;-62
2021/12/13 05:09:45;;;;;;;3.22;1.50;;;;;;;;;;5090944;28;20024;-63
2021/12/13 05:12:16;;;;;;;3.83;1.60;;;;;;;;;;5056566;28;20039;-63
2021/12/13 05:14:53;;;;;;;4.55;1.92;;;;;;;;;;5055686;28;20140;-63
2021/12/13 05:17:20;;;;;;;3.75;1.58;;;;;;;;;;5056101;28;20399;-63
2021/12/13 05:19:49;;;;;;;6.15;2.05;;;;;;;;;;5055740;28;20031;-63
2021/12/13 05:22:15;;;;;;;4.82;1.63;;;;;;;;;;5056052;28;20117;-63
2021/12/13 05:24:50;;;;;;;5.57;2.25;;;;;;;;;;5090563;28;20581;-62
2021/12/13 05:27:23;;;;;;;7.30;2.55;;;;;;;;;;5090661;28;20067;-64
2021/12/13 05:29:50;;;;;;;8.45;2.83;;;;;;;;;;5072332;28;20518;-64
2021/12/13 05:32:16;;;;;;;5.40;2.22;;;;;;;;;;5072257;28;20059;-65
2021/12/13 05:34:45;;;;;;;9.05;2.95;;;;;;;;;;5072236;28;20063;-73
2021/12/13 05:37:10;;;;;;;9.63;3.05;;;;;;;;;;5055882;28;20127;-64
2021/12/13 05:39:37;;;;;;;10.02;2.78;;;;;;;;;;5091106;28;20454;-66
2021/12/13 05:42:05;;;;;;;10.00;3.10;;;;;;;;;;5090784;28;20088;-64
2021/12/13 05:44:33;;;;;;;11.95;3.67;;;;;;;;;;5055729;28;20028;-64
2021/12/13 05:47:00;;;;;;;7.93;2.53;;;;;;;;;;5071772;28;20032;-64
2021/12/13 05:49:30;;;;;;;9.18;2.38;;;;;;;;;;5055873;28;20562;-64
2021/12/13 05:52:15;;;;;;;7.47;2.95;;;;;;;;;;5055749;28;20115;-64
2021/12/13 05:54:44;;;;;;;14.15;3.10;;;;;;;;;;5089197;28;20112;-63
2021/12/13 05:57:12;;;;;;;12.23;3.15;;;;;;;;;;5055488;28;20089;-73
2021/12/13 05:59:58;;;;;;;11.32;3.08;;;;;;;;;;5089935;28;20028;-65
2021/12/13 06:02:42;;;;;;;7.88;2.58;;;;;;;;;;5089698;28;20079;-64
2021/12/13 06:05:18;;;;;;;5.55;2.40;;;;;;;;;;5090226;28;20560;-65
2021/12/13 06:07:52;;;;;;;8.02;2.70;;;;;;;;;;5055219;28;20485;-63
2021/12/13 06:10:18;;;;;;;9.90;3.03;;;;;;;;;;5090557;28;20063;-65
2021/12/13 06:12:53;;;;;;;6.70;2.60;;;;;;;;;;5055452;28;20490;-63
2021/12/13 06:15:20;;;;;;;7.47;2.50;;;;;;;;;;5054999;28;20119;-63
2021/12/13 06:17:51;;;;;;;8.48;2.50;;;;;;;;;;5071847;28;20031;-64
2021/12/13 06:20:36;;;;;;;7.70;3.17;;;;;;;;;;5089956;28;20051;-63
2021/12/13 06:23:06;;;;;;;10.50;3.00;;;;;;;;;;5089980;28;20032;-63
2021/12/13 06:25:31;;;;;;;9.02;3.63;;;;;;;;;;5089690;28;20080;-63
2021/12/13 06:28:01;;;;;;;9.48;4.07;;;;;;;;;;5089908;28;20040;-64
2021/12/13 06:30:26;;;;;;;12.95;4.53;;;;;;;;;;5054872;28;20127;-67
2021/12/13 06:33:12;;;;;;;16.90;4.53;;;;;;;;;;5089339;28;20111;-65
2021/12/13 06:35:37;;;;;;;14.10;5.03;;;;;;;;;;5088768;28;20048;-64
2021/12/13 06:38:22;;;;;;;9.73;4.38;;;;;;;;;;5089703;28;20599;-64
2021/12/13 06:41:17;;;;;;;14.27;4.15;;;;;;;;;;5089544;28;20039;-64
2021/12/13 06:43:48;;;;;;;8.95;3.45;;;;;;;;;;5050141;28;20044;-64
2021/12/13 06:46:22;;;;;;;14.13;3.80;;;;;;;;;;5054753;28;20493;-64
2021/12/13 06:48:50;;;;;;;9.80;3.38;;;;;;;;;;5089308;28;20035;-64
2021/12/13 06:51:16;;;;;;;10.20;2.72;;;;;;;;;;5054582;28;20508;-64
2021/12/13 06:53:58;;;;;;;4.88;2.85;;;;;;;;;;5071068;28;20421;-69
2021/12/13 06:56:26;;;;;;;11.60;3.65;;;;;;;;;;5054612;28;20028;-63
2021/12/13 06:58:52;;;;;;;10.77;3.30;;;;;;;;;;5054639;28;20460;-64
2021/12/13 07:01:18;;;;;;;8.38;3.30;;;;;;;;;;5089392;28;20032;-64
2021/12/13 07:03:51;;;;;;;8.38;3.10;;;;;;;;;;5054273;28;20040;-65
2021/12/13 07:06:18;;;;;;;15.88;4.30;;;;;;;;;;5070801;28;20081;-66
2021/12/13 07:08:43;;;;;;;9.63;3.03;;;;;;;;;;5088980;28;20036;-63
2021/12/13 07:11:13;;;;;;;7.07;2.58;;;;;;;;;;5088783;28;20114;-66
2021/12/13 07:13:47;;;;;;;7.15;2.63;;;;;;;;;;5054429;28;20036;-64
2021/12/13 07:16:14;;;;;;;6.70;3.08;;;;;;;;;;5070601;28;20089;-64
2021/12/13 07:18:42;;;;;;;7.53;3.05;;;;;;;;;;5088877;28;20036;-65
2021/12/13 07:21:09;;;;;;;6.43;2.70;;;;;;;;;;5088908;28;20063;-64
2021/12/13 07:23:52;;;;;;;11.52;3.38;;;;;;;;;;5054335;28;20074;-64
2021/12/13 07:26:30;;;;;;;8.82;2.05;;;;;;;;;;5053863;28;20122;-65
2021/12/13 07:28:57;;;;;;;5.97;2.17;;;;;;;;;;5053772;28;20032;-66
2021/12/13 07:31:22;;;;;;;3.60;1.90;;;;;;;;;;5070792;28;20055;-65
2021/12/13 07:33:48;;;;;;;5.60;2.20;;;;;;;;;;5088674;28;20070;-66
2021/12/13 07:36:18;;;;;;;4.10;1.95;;;;;;;;;;5088832;28;20032;-66
2021/12/13 07:38:48;;;;;;;6.18;2.20;;;;;;;;;;5088621;28;20032;-65
2021/12/13 07:41:13;;;;;;;6.95;2.33;;;;;;;;;;5053784;28;20540;-66
2021/12/13 07:43:43;;;;;;;4.25;2.00;;;;;;;;;;5089011;28;20028;-64
2021/12/13 07:46:18;;;;;;;6.85;2.20;;;;;;;;;;5053758;28;20085;-64
2021/12/13 07:48:43;;;;;;;7.63;2.35;;;;;;;;;;5070418;28;20072;-65
2021/12/13 07:51:08;;;;;;;7.88;2.58;;;;;;;;;;5088942;28;20067;-64
2021/12/13 07:53:49;;;;;;;4.75;2.38;;;;;;;;;;5088985;28;20434;-64
2021/12/13 07:56:33;;;;;;;5.25;2.67;;;;;;;;;;5070489;28;20432;-64
2021/12/13 07:59:04;;;;;;;5.25;2.55;;;;;;;;;;5085393;28;20028;-70
2021/12/13 08:01:31;;;;;;;7.32;2.58;;;;;;;;;;5054002;28;20085;-64
2021/12/13 08:04:07;;;;;;;7.35;3.38;;;;;;;;;;5053883;28;20394;-65
2021/12/13 08:06:34;;;;;;;6.18;2.92;;;;;;;;;;5053756;28;20094;-64
2021/12/13 08:09:03;;;;;;;9.93;2.80;;;;;;;;;;5101064;28;20023;-64
2021/12/13 08:11:37;;;;;;;3.88;2.33;;;;;;;;;;5072653;28;20514;-69
2021/12/13 08:14:03;;;;;;;4.65;2.60;;;;;;;;;;5073463;28;20036;-64
2021/12/13 08:16:36;;;;;;;7.03;2.75;;;;;;;;;;5108926;28;20375;-64
2021/12/13 08:19:21;;;;;;;6.63;2.88;;;;;;;;;;5108868;28;20111;-65
2021/12/13 08:21:51;;;;;;;6.18;3.05;;;;;;;;;;5077264;28;20446;-65
2021/12/13 08:24:19;;;;;;;6.93;2.90;;;;;;;;;;5052507;28;20101;-65
2021/12/13 08:26:44;;;;;;;8.20;3.60;;;;;;;;;;5040302;28;20147;-67
2021/12/13 08:29:19;;;;;;;9.48;3.63;;;;;;;;;;5088229;28;20114;-68
2021/12/13 08:31:47;;;;;;;10.32;3.80;;;;;;;;;;5075968;28;20030;-66
2021/12/13 08:34:23;;;;;;;12.70;4.05;;;;;;;;;;5055972;28;20043;-71
2021/12/13 08:36:50;;;;;;;7.63;3.58;;;;;;;;;;5052298;28;20028;-66
2021/12/13 08:39:18;;;;;;;7.85;3.30;;;;;;;;;;5042413;28;20472;-66
2021/12/13 08:42:19;;;;;;;6.00;2.95;;;;;;;;;;5051870;28;20029;-66
2021/12/13 08:44:45;;;;;;;4.88;2.47;;;;;;;;;;4988454;28;20046;-72
2021/12/13 08:47:16;;;;;;;9.05;3.17;;;;;;;;;;5040882;28;20051;-67
2021/12/13 08:49:47;;;;;;;5.50;2.20;;;;;;;;;;5106812;28;20423;-68
2021/12/13 08:52:13;;;;;;;6.80;2.28;;;;;;;;;;5059899;28;20046;-68
2021/12/13 08:54:57;;;;;;;5.78;2.25;;;;;;;;;;5088776;28;20036;-68
2021/12/13 08:57:25;;;;;;;5.85;2.50;;;;;;;;;;5088181;28;20399;-68
2021/12/13 08:59:52;;;;;;;7.18;2.47;;;;;;;;;;5088548;28;20039;-69
2021/12/13 09:02:18;;;;;;;5.32;2.72;;;;;;;;;;5089244;28;20044;-67
2021/12/13 09:05:02;;;;;;;8.10;2.58;;;;;;;;;;5089662;28;20040;-67
2021/12/13 09:07:28;;;;;;;4.90;2.22;;;;;;;;;;5071114;28;20040;-68
2021/12/13 09:09:54;;;;;;;4.63;2.40;;;;;;;;;;5089282;28;20047;-68
2021/12/13 09:12:31;;;;;;;5.80;3.00;;;;;;;;;;5055044;28;20028;-70
2021/12/13 09:14:58;;;;;;;6.38;2.78;;;;;;;;;;5070334;28;20036;-68
2021/12/13 09:17:26;;;;;;;4.28;2.45;;;;;;;;;;5055942;28;20467;-66
2021/12/13 09:19:56;;;;;;;9.30;3.63;;;;;;;;;;5055422;28;20020;-68
2021/12/13 09:22:36;;;;;;;4.95;3.00;;;;;;;;;;5090795;28;20067;-66
2021/12/13 09:25:01;;;;;;;;;;;;;;;;;;5073122;28;20071;-67
2021/12/13 09:27:46;;;;;;;5.10;2.13;;;;;;;;;;5090394;28;19967;-67
2021/12/13 09:30:11;;;;;;;4.10;1.80;;;;;;;;;;5072367;28;20028;-67
2021/12/13 09:32:39;;;;;;;7.60;2.17;;;;;;;;;;5090305;28;20027;-69
2021/12/13 09:35:26;;;;;;;5.00;1.75;;;;;;;;;;5090245;28;20035;-66
2021/12/13 09:37:52;;;;;;;4.60;2.10;;;;;;;;;;5090156;28;20475;-65
2021/12/13 09:40:19;;;;;;;6.05;1.80;;;;;;;;;;5085720;28;20036;-65
2021/12/13 09:42:49;;;;;;;5.55;1.88;;;;;;;;;;5055125;28;20131;-64
2021/12/13 09:45:20;;;;;;;7.45;2.22;;;;;;;;;;5054697;28;20032;-64
2021/12/13 09:47:46;;;;;;;3.50;1.70;;;;;;;;;;5050098;28;20036;-65
2021/12/13 09:50:17;;;;;;;4.20;1.58;;;;;;;;;;5069582;28;20043;-65
2021/12/13 09:52:48;;;;;;;2.60;1.40;;;;;;;;;;5034984;28;20373;-64
2021/12/13 09:55:14;;;;;;;4.85;2.00;;;;;;;;;;5069686;28;20036;-68
2021/12/13 09:57:39;;;;;;;3.40;1.58;;;;;;;;;;5069764;28;20056;-67
2021/12/13 10:00:13;;;;;;;7.38;2.10;;;;;;;;;;5069198;28;20077;-65
2021/12/13 10:02:41;;;;;;;5.95;1.90;;;;;;;;;;5034981;28;20060;-66
2021/12/13 10:05:08;;;;;;;3.75;1.77;;;;;;;;;;5035148;28;20036;-64
2021/12/13 10:07:35;;;;;;;7.45;2.65;;;;;;;;;;5034925;28;20044;-64
2021/12/13 10:10:21;;;;;;;3.55;1.17;;;;;;;;;;5069263;28;20459;-65
2021/12/13 10:12:57;;;;;;;2.92;1.50;;;;;;;;;;5051095;28;20512;-65
2021/12/13 10:15:25;;;;;;;3.20;1.67;;;;;;;;;;5035364;28;20411;-64
2021/12/13 10:17:54;;;;;;;4.47;1.95;;;;;;;;;;5051741;28;20041;-68
2021/12/13 10:20:29;;;;;;;5.50;1.73;;;;;;;;;;5067980;28;20024;-64
2021/12/13 10:22:55;;;;;;;5.28;2.00;;;;;;;;;;5069320;28;20031;-67
2021/12/13 10:25:32;;;;;;;3.88;1.63;;;;;;;;;;5081768;28;20074;-67
2021/12/13 10:27:58;;;;;;;3.97;1.58;;;;;;;;;;5089642;28;20502;-65
2021/12/13 10:30:29;;;;;;;3.95;1.50;;;;;;;;;;5090091;28;20031;-65
2021/12/13 10:32:56;;;;;;;3.65;1.58;;;;;;;;;;5089263;28;20627;-67
2021/12/13 10:35:28;;;;;;;5.13;1.90;;;;;;;;;;5089362;28;20024;-68
2021/12/13 10:37:56;;;;;;;9.07;2.15;;;;;;;;;;5089196;28;20043;-66
2021/12/13 10:40:44;;;;;;;4.15;1.85;;;;;;;;;;5088863;28;20047;-68
2021/12/13 10:43:13;;;;;;;3.95;1.83;;;;;;;;;;5088042;28;20517;-69
2021/12/13 10:45:51;;;;;;;3.63;2.00;;;;;;;;;;5089612;28;20122;-68
2021/12/13 10:48:18;;;;;;;3.47;1.80;;;;;;;;;;5089321;28;20115;-68
2021/12/13 10:50:49;;;;;;;3.95;1.63;;;;;;;;;;5087891;28;20031;-68
2021/12/13 10:53:17;;;;;;;4.40;2.03;;;;;;;;;;5089415;28;20384;-68
2021/12/13 10:55:46;;;;;;;5.20;1.90;;;;;;;;;;5089124;28;20126;-67
2021/12/13 10:58:17;;;;;;;4.85;2.67;;;;;;;;;;5088911;28;20169;-67
2021/12/13 11:00:44;;;;;;;4.35;2.25;;;;;;;;;;5088644;28;20046;-69
2021/12/13 11:03:18;;;;;;;5.75;1.63;;;;;;;;;;5087282;28;20032;-69
2021/12/13 11:05:43;;;;;;;4.85;2.10;;;;;;;;;;5089288;28;20373;-70
2021/12/13 11:08:10;;;;;;;4.32;1.83;;;;;;;;;;5089482;28;20039;-70
2021/12/13 11:10:38;;;;;;;4.00;2.00;;;;;;;;;;5088736;28;20032;-68
2021/12/13 11:13:04;;;;;;;6.10;2.10;;;;;;;;;;5088527;28;20051;-68
2021/12/13 11:15:33;;;;;;;4.10;2.00;;;;;;;;;;5089124;28;20035;-69
2021/12/13 11:18:01;;;;;;;4.32;2.28;;;;;;;;;;5088667;28;20132;-69
2021/12/13 11:20:28;;;;;;;4.60;2.10;;;;;;;;;;5078369;28;20028;-66
2021/12/13 11:22:55;;;;;;;4.85;2.00;;;;;;;;;;5088362;28;20099;-70
2021/12/13 11:25:23;;;;;;;4.07;2.13;;;;;;;;;;5088975;28;20028;-70
2021/12/13 11:27:49;;;;;;;5.63;1.95;;;;;;;;;;5070688;28;20040;-69
2021/12/13 11:30:16;;;;;;;4.40;2.00;;;;;;;;;;5070822;28;20047;-69
2021/12/13 11:32:57;;;;;;;4.07;2.20;;;;;;;;;;5088542;28;20028;-69
2021/12/13 11:35:35;;;;;;;4.13;1.95;;;;;;;;;;5088989;28;20380;-69
2021/12/13 11:38:11;;;;;;;4.03;1.95;;;;;;;;;;5088669;28;20043;-70
2021/12/13 11:40:55;;;;;;;7.65;2.65;;;;;;;;;;5088281;28;20093;-69
2021/12/13 11:43:32;;;;;;;4.20;2.33;;;;;;;;;;5088780;28;20149;-69
2021/12/13 11:46:07;;;;;;;4.75;2.53;;;;;;;;;;5088434;28;20044;-69
2021/12/13 11:48:44;;;;;;;5.97;3.05;;;;;;;;;;5088404;28;20114;-69
2021/12/13 11:51:16;;;;;;;6.93;2.90;;;;;;;;;;5088500;28;20032;-69
2021/12/13 11:53:41;;;;;;;6.50;2.75;;;;;;;;;;5088362;28;20081;-70
2021/12/13 11:56:25;;;;;;;5.40;3.00;;;;;;;;;;5084884;28;20025;-69
2021/12/13 11:59:17;;;;;;;4.20;2.58;;;;;;;;;;5087456;28;20438;-68
2021/12/13 12:01:52;;;;;;;5.43;2.60;;;;;;;;;;5085399;28;20121;-69
2021/12/13 12:04:24;;;;;;;11.10;2.72;;;;;;;;;;5091891;28;20028;-67
2021/12/13 12:06:58;;;;;;;5.85;2.40;;;;;;;;;;5092070;28;20067;-65
2021/12/13 12:09:33;;;;;;;7.15;2.58;;;;;;;;;;5088421;28;20398;-70
2021/12/13 12:11:58;;;;;;;7.22;2.70;;;;;;;;;;5091407;28;20442;-66
2021/12/13 12:14:28;;;;;;;4.30;2.58;;;;;;;;;;5088404;28;20099;-70
2021/12/13 12:16:54;;;;;;;7.53;2.75;;;;;;;;;;5056725;28;20499;-73
2021/12/13 12:19:23;;;;;;;4.35;2.55;;;;;;;;;;5091579;28;20038;-72
2021/12/13 12:21:57;;;;;;;6.57;3.05;;;;;;;;;;5073326;28;21013;-76
2021/12/13 12:24:24;;;;;;;6.97;3.10;;;;;;;;;;5091559;28;20048;-70
2021/12/13 12:26:52;;;;;;;6.30;2.75;;;;;;;;;;5091100;28;20040;-73
2021/12/13 12:29:21;;;;;;;5.63;3.17;;;;;;;;;;5056783;28;20039;-75
2021/12/13 12:31:48;;;;;;;6.40;2.97;;;;;;;;;;5073524;28;20093;-70
2021/12/13 12:34:15;;;;;;;7.25;3.10;;;;;;;;;;5057032;28;20050;-76
2021/12/13 12:36:48;;;;;;;5.78;3.10;;;;;;;;;;5072946;28;20044;-74
2021/12/13 12:39:32;;;;;;;6.47;3.20;;;;;;;;;;5073305;28;20123;-70
2021/12/13 12:42:16;;;;;;;5.05;2.95;;;;;;;;;;5091430;28;20090;-72
2021/12/13 12:44:52;;;;;;;5.55;3.10;;;;;;;;;;5090927;28;20059;-73
2021/12/13 12:47:17;;;;;;;4.05;2.88;;;;;;;;;;5072853;28;20043;-72
2021/12/13 12:49:42;;;;;;;8.63;3.00;;;;;;;;;;5091309;28;20036;-72
2021/12/13 12:52:09;;;;;;;5.50;3.08;;;;;;;;;;5091062;28;20116;-72
2021/12/13 12:54:36;;;;;;;6.05;3.10;;;;;;;;;;5091055;28;20093;-70
2021/12/13 12:57:03;;;;;;;5.78;3.20;;;;;;;;;;5090724;28;20234;-72
2021/12/13 12:59:34;;;;;;;7.55;3.25;;;;;;;;;;5073060;28;20119;-71
2021/12/13 13:02:04;;;;;;;4.70;2.72;;;;;;;;;;5072487;28;20390;-72
2021/12/13 13:04:35;;;;;;;6.55;3.55;;;;;;;;;;5072454;28;20086;-69
2021/12/13 13:07:09;;;;;;;10.32;3.13;;;;;;;;;;5090925;28;20044;-72
2021/12/13 13:09:47;;;;;;;5.28;2.88;;;;;;;;;;5090873;28;20158;-72
2021/12/13 13:12:30;;;;;;;6.28;3.50;;;;;;;;;;5090451;28;20130;-71
2021/12/13 13:15:00;;;;;;;7.15;3.10;;;;;;;;;;5090730;28;20076;-73
2021/12/13 13:17:28;;;;;;;6.07;3.40;;;;;;;;;;5072188;28;20061;-69
2021/12/13 13:19:58;;;;;;;4.65;3.20;;;;;;;;;;5055057;28;20117;-72
2021/12/13 13:22:27;;;;;;;7.95;3.20;;;;;;;;;;5090905;28;20158;-72
2021/12/13 13:24:55;;;;;;;6.35;3.53;;;;;;;;;;5072092;28;20386;-72
2021/12/13 13:27:22;;;;;;;101.97;92.60;;;;;;;;;;5072763;28;20036;-71
2021/12/13 13:29:47;;;;;;;270.25;238.60;;;;;;;;;;5090625;28;20024;-72
2021/12/13 13:32:14;;;;;;;431.30;285.90;;;;;;;;;;5090671;28;20540;-72
2021/12/13 13:34:42;;;;;;;185.52;70.82;;;;;;;;;;5090512;28;20047;-70
2021/12/13 13:37:12;;;;;;;86.30;60.65;;;;;;;;;;5072602;28;20027;-71
2021/12/13 13:39:43;;;;;;;22.98;11.63;;;;;;;;;;5055746;28;20070;-72
2021/12/13 13:42:26;;;;;;;11.70;6.30;;;;;;;;;;5055582;28;20032;-72
2021/12/13 13:44:57;;;;;;;6.63;4.15;;;;;;;;;;5055440;28;20032;-70
2021/12/13 13:47:34;;;;;;;14.77;6.30;;;;;;;;;;5087616;28;20127;-70
2021/12/13 13:50:17;;;;;;;9.05;4.20;;;;;;;;;;5087910;28;20043;-71
2021/12/13 13:52:44;;;;;;;7.32;3.95;;;;;;;;;;5089330;28;20054;-71
2021/12/13 13:55:27;;;;;;;14.70;4.13;;;;;;;;;;5070845;28;20077;-72
2021/12/13 13:57:55;;;;;;;12.70;4.97;;;;;;;;;;5066014;28;20040;-70
2021/12/13 14:00:21;;;;;;;8.27;3.63;;;;;;;;;;5087929;28;20060;-72
2021/12/13 14:02:49;;;;;;;9.63;4.43;;;;;;;;;;5089781;28;20040;-71
2021/12/13 14:05:15;;;;;;;12.80;4.28;;;;;;;;;;5079531;28;20108;-71
2021/12/13 14:07:42;;;;;;;11.63;4.70;;;;;;;;;;5079319;28;20123;-71
2021/12/13 14:10:08;;;;;;;10.20;4.30;;;;;;;;;;5061272;28;20063;-72
2021/12/13 14:12:36;;;;;;;7.32;4.38;;;;;;;;;;5079415;28;20051;-73
2021/12/13 14:15:01;;;;;;;6.47;3.75;;;;;;;;;;5045389;28;20023;-71
2021/12/13 14:17:35;;;;;;;7.75;3.78;;;;;;;;;;5071992;28;20036;-68
2021/12/13 14:20:24;;;;;;;6.50;3.78;;;;;;;;;;5071950;28;20036;-72
2021/12/13 14:22:56;;;;;;;8.70;4.20;;;;;;;;;;5061504;28;20933;-69
2021/12/13 14:25:31;;;;;;;8.15;4.00;;;;;;;;;;5088457;28;20820;-72
2021/12/13 14:27:56;;;;;;;9.35;3.70;;;;;;;;;;5055289;28;20040;-71
2021/12/13 14:30:48;;;;;;;9.80;4.57;;;;;;;;;;5089946;28;20367;-70
2021/12/13 14:33:22;;;;;;;11.95;4.22;;;;;;;;;;5086560;28;20139;-68
2021/12/13 14:35:53;;;;;;;7.97;4.15;;;;;;;;;;5089885;28;20028;-71
2021/12/13 14:38:18;;;;;;;7.32;4.20;;;;;;;;;;5088450;28;20032;-71
2021/12/13 14:40:52;;;;;;;8.23;3.78;;;;;;;;;;5089643;28;20080;-71
2021/12/13 14:43:28;;;;;;;13.70;3.65;;;;;;;;;;5053985;28;20035;-71
2021/12/13 14:45:55;;;;;;;7.88;3.45;;;;;;;;;;5054579;28;20032;-71
2021/12/13 14:48:23;;;;;;;7.18;4.13;;;;;;;;;;5054969;28;20032;-72
2021/12/13 14:50:54;;;;;;;6.03;4.00;;;;;;;;;;5054633;28;20032;-71
2021/12/13 14:53:31;;;;;;;8.90;4.05;;;;;;;;;;5044756;28;20514;-72
2021/12/13 14:56:01;;;;;;;6.80;3.92;;;;;;;;;;5069221;28;20035;-70
2021/12/13 14:58:32;;;;;;;7.57;3.92;;;;;;;;;;5069870;28;20071;-70
2021/12/13 15:01:01;;;;;;;11.93;3.97;;;;;;;;;;5034799;28;20028;-68
2021/12/13 15:03:28;;;;;;;7.95;3.80;;;;;;;;;;5034804;28;20041;-65
2021/12/13 15:05:56;;;;;;;5.95;3.85;;;;;;;;;;5034611;28;20044;-71
2021/12/13 15:08:23;;;;;;;5.53;3.13;;;;;;;;;;5069293;28;20055;-68